Friday, April 20, 2018, 10:44 AM GMT
Back to Local

CWRK, Bancroft Automatic Weather Reporting System

Location: , , Canada Lat: 45.067
Local Time: 10:44 AM GMT (10:44 GMT) Lon: -77.867
Time Zone: GMT Elev: 1085 ft

Show me the last for .
Show Coded

Time T Td Feel RH Dir Speed Gust Alt SLP Vis Weather Sky Remarks
2018-04-20 10:00 25 18 18 75 360° 6 - - 30.23 0 None
2018-04-20 09:00 25 18 19 73 330° 6 - - 30.21 0 None
2018-04-20 08:00 26 18 18 71 330° 7 - - 30.19 0 None
2018-04-20 07:00 26 18 18 69 330° 8 - - 30.18 0 None
2018-04-20 06:00 27 18 17 69 330° 9 - - 30.17 0 Peak wind: 19 mph (17 kts) from 320° at 49 min
2018-04-20 05:00 27 19 18 69 330° 9 - - 30.17 0 None
2018-04-20 04:00 28 19 20 69 340° 8 - - 30.15 0 None
2018-04-20 03:00 28 19 19 66 340° 9 - - 30.14 0 None
2018-04-20 02:00 29 19 20 66 330° 9 - - 30.14 0 Peak wind: 19 mph (17 kts) from 340° at 12 min
2018-04-20 01:00 29 17 16 60 340° 9 21 - 30.11 0 Peak wind: 20 mph (18 kts) from 340° at 54 min
2018-04-20 00:00 30 19 22 63 340° 8 - - 30.08 0 None
2018-04-19 23:00 30 18 18 59 330° 13 21 - 30.04 0 Peak wind: 20 mph (18 kts) from 310° at 34 min
2018-04-19 22:00 30 18 17 60 330° 14 22 - 30.02 0 Peak wind: 21 mph (19 kts) from 340° at 57 min
2018-04-19 21:00 31 19 20 60 330° 10 18 - 29.98 0 Peak wind: 21 mph (19 kts) from 320° at 08 min
2018-04-19 20:00 32 18 20 55 330° 12 17 - 29.96 0 Peak wind: 23 mph (20 kts) from 330° at 26 min
2018-04-19 19:00 32 19 19 58 330° 13 24 - 29.95 0 Peak wind: 24 mph (21 kts) from 320° at 57 min
2018-04-19 18:00 32 18 21 56 340° 10 17 - 29.93 0 Peak wind: 20 mph (18 kts) from 340° at 02 min
1-hr Precip Total: 0.01"
2018-04-19 17:00 30 20 18 65 350° 12 18 - 29.91 0 Peak wind: 21 mph (19 kts) from 330° at 05 min
2018-04-19 16:00 31 19 22 61 330° 10 - - 29.89 0 Peak wind: 23 mph (20 kts) from 350° at 43 min
2018-04-19 15:00 30 19 22 63 330° 9 - - 29.87 0 Peak wind: 21 mph (19 kts) from 0° at 04 min
2018-04-19 14:00 29 21 22 70 350° 8 - - 29.85 0 None
2018-04-19 13:00 29 21 21 73 340° 8 - - 29.83 0 None
2018-04-19 12:00 28 23 20 81 330° 8 - - 29.82 0 None
2018-04-19 11:00 29 22 24 72 350° 5 - - 29.82 0 None

Support USWX by starting your Amazon purchase here.